Oyster Creek, Texas
Current Conditions -  °F | °C
As of 3:53 PM on Thursday 23 Oct 2014 (Local Time) from KLBX Reporting Station
Clear Clear  
Wind Chill: 78°   Ceiling: Unl
Heat Index: 79°   Visibility: 10mi
Dew Point: 55°   Wind: 8mph
Humidity: 45%   Direction: 10°N
Pressure: 30.05"   Gusts: NA
Location:  28.9433°N, 95.4584°W
Report Text: KLBX 232053Z AUTO 01007KT 10SM CLR 26/13 A3005 RMK AO2 SLP176 T02560128 56019
Loading
Personal Weather Stations






























Interactive Weather Map
Tropical Storm Tracking
New forecast layout! Learn more

10-Day Weather Forecast

Advertisements
Track Severe Weather on mobile